Time;durP1;ratioP1;P1;durP2;ratioP2;P2;SDS_P1;SDS_P2;PMS_P1;PMS_P2;Temp;Humidity;BMP_temperature;BMP_pressure;BME280_temperature;BME280_humidity;BME280_pressure;Samples;Min_cycle;Max_cycle;Signal;HPM_P1;HPM_P2
2021/04/22 00:00:45;;;;;;;20.58;11.10;;;;;;;5.92;77.41;95540.53;5052122;28;20517;-66
2021/04/22 00:03:16;;;;;;;17.98;11.18;;;;;;;5.82;78.30;95535.94;5049297;28;20037;-66
2021/04/22 00:05:42;;;;;;;20.15;10.98;;;;;;;5.80;78.21;95532.75;5031317;28;20167;-66
2021/04/22 00:08:12;;;;;;;18.55;10.15;;;;;;;5.78;78.29;95534.81;5042201;28;20049;-66
2021/04/22 00:10:43;;;;;;;18.08;10.70;;;;;;;6.03;76.96;95531.84;5037693;28;20045;-66
2021/04/22 00:13:12;;;;;;;23.00;11.40;;;;;;;6.00;77.00;95532.28;5060557;28;20033;-66
2021/04/22 00:15:38;;;;;;;16.08;10.57;;;;;;;5.95;77.49;95531.41;5048472;28;20056;-66
2021/04/22 00:18:06;;;;;;;18.48;10.73;;;;;;;5.95;77.32;95526.19;5043139;28;20080;-66
2021/04/22 00:20:32;;;;;;;16.58;9.75;;;;;;;5.89;77.83;95530.56;5047834;28;20238;-66
2021/04/22 00:22:58;;;;;;;18.40;10.35;;;;;;;5.85;77.84;95529.44;5039916;28;20044;-67
2021/04/22 00:25:24;;;;;;;17.48;10.70;;;;;;;5.72;78.48;95536.56;5043555;28;20045;-66
2021/04/22 00:27:49;;;;;;;20.88;11.40;;;;;;;5.67;78.35;95533.84;5059067;28;20039;-66
2021/04/22 00:30:17;;;;;;;16.83;10.55;;;;;;;5.71;78.25;95526.34;5070950;28;20343;-66
2021/04/22 00:32:43;;;;;;;21.08;11.30;;;;;;;5.69;78.44;95528.44;5050223;28;20110;-66
2021/04/22 00:35:11;;;;;;;20.15;11.48;;;;;;;5.75;78.21;95530.09;5049800;28;20288;-66
2021/04/22 00:37:37;;;;;;;22.65;11.05;;;;;;;5.78;78.44;95528.81;5044335;28;20452;-66
2021/04/22 00:40:11;;;;;;;21.67;11.38;;;;;;;5.84;77.76;95525.25;5050749;28;20041;-66
2021/04/22 00:42:37;;;;;;;18.58;10.75;;;;;;;5.79;78.36;95520.75;5038330;28;20084;-66
2021/04/22 00:45:03;;;;;;;22.10;10.45;;;;;;;5.83;77.63;95515.81;5037680;28;20041;-66
2021/04/22 00:47:29;;;;;;;18.23;9.50;;;;;;;5.75;77.57;95513.59;5054210;28;20060;-66
2021/04/22 00:49:55;;;;;;;15.88;10.10;;;;;;;5.59;78.78;95516.00;5061438;28;20052;-66
2021/04/22 00:52:20;;;;;;;17.17;9.40;;;;;;;5.57;78.50;95518.03;5046151;28;20491;-66
2021/04/22 00:54:46;;;;;;;15.25;9.18;;;;;;;5.57;78.71;95518.03;5057259;28;20048;-66
2021/04/22 00:57:12;;;;;;;18.27;9.75;;;;;;;5.52;78.73;95516.16;5053654;28;20037;-66
2021/04/22 00:59:37;;;;;;;14.82;9.40;;;;;;;5.58;78.40;95513.63;5049718;28;20521;-66
2021/04/22 01:02:14;;;;;;;13.48;7.93;;;;;;;5.63;78.33;95517.09;5053289;28;20052;-66
2021/04/22 01:04:41;;;;;;;15.05;9.35;;;;;;;5.62;78.23;95519.97;5043436;28;20040;-66
2021/04/22 01:07:06;;;;;;;14.15;9.13;;;;;;;5.81;77.86;95517.91;5059880;28;20051;-65
2021/04/22 01:09:32;;;;;;;14.82;8.25;;;;;;;5.86;77.10;95504.91;5059582;28;20066;-67
2021/04/22 01:12:00;;;;;;;16.65;8.45;;;;;;;5.79;77.07;95502.47;5056616;28;20524;-66
2021/04/22 01:14:26;;;;;;;14.90;8.07;;;;;;;5.81;76.99;95494.38;5048289;28;20052;-66
2021/04/22 01:16:52;;;;;;;15.20;9.20;;;;;;;5.61;77.92;95503.50;5044861;28;20045;-66
2021/04/22 01:19:17;;;;;;;14.10;8.65;;;;;;;5.59;77.80;95497.72;5039922;28;20049;-66
2021/04/22 01:21:43;;;;;;;16.45;8.82;;;;;;;5.76;77.35;95494.31;5047099;28;20042;-66
2021/04/22 01:24:10;;;;;;;15.27;9.43;;;;;;;5.82;77.25;95488.13;5055222;28;20083;-65
2021/04/22 01:26:36;;;;;;;15.73;9.65;;;;;;;5.83;77.29;95484.47;5052811;28;20072;-65
2021/04/22 01:29:03;;;;;;;16.95;9.60;;;;;;;5.84;76.96;95493.91;5054863;28;20044;-67
2021/04/22 01:31:29;;;;;;;21.67;10.85;;;;;;;5.68;77.79;95505.94;5074183;28;20109;-65
2021/04/22 01:34:04;;;;;;;18.63;10.95;;;;;;;5.61;78.29;95534.81;5059700;28;20073;-66
2021/04/22 01:36:34;;;;;;;18.48;10.75;;;;;;;5.81;77.89;95533.56;5041608;28;20093;-67
2021/04/22 01:39:01;;;;;;;16.70;10.23;;;;;;;6.19;76.15;95535.47;5060912;28;20083;-66
2021/04/22 01:41:28;;;;;;;19.02;11.02;;;;;;;6.21;75.87;95537.81;5060161;28;20048;-66
2021/04/22 01:43:54;;;;;;;19.25;10.80;;;;;;;6.41;74.83;95532.88;5050634;28;20034;-66
2021/04/22 01:46:20;;;;;;;17.58;10.70;;;;;;;6.66;73.21;95526.34;5048939;28;20048;-67
2021/04/22 01:48:46;;;;;;;18.23;10.10;;;;;;;6.79;73.08;95522.59;5071579;28;20564;-66
2021/04/22 01:51:11;;;;;;;14.20;8.60;;;;;;;6.97;70.72;95524.09;5056788;28;20049;-66
2021/04/22 01:53:37;;;;;;;10.43;5.65;;;;;;;7.53;65.11;95523.03;5047449;28;20511;-66
2021/04/22 01:56:03;;;;;;;8.70;5.38;;;;;;;7.98;61.39;95506.88;5038766;28;20067;-66
2021/04/22 01:58:28;;;;;;;10.40;5.68;;;;;;;8.24;63.43;95503.63;5061581;28;20056;-66
2021/04/22 02:00:56;;;;;;;13.00;7.10;;;;;;;7.40;73.68;95519.81;5053057;28;20041;-68
2021/04/22 02:03:22;;;;;;;12.55;6.78;;;;;;;7.08;73.89;95504.84;5047323;28;20049;-68
2021/04/22 02:05:48;;;;;;;15.10;6.97;;;;;;;7.18;71.26;95498.13;5065304;28;20551;-69
2021/04/22 02:08:14;;;;;;;13.60;7.88;;;;;;;7.17;70.94;95501.78;5036081;28;20041;-66
2021/04/22 02:10:41;;;;;;;10.82;6.93;;;;;;;7.14;72.51;95499.66;5048435;28;20063;-66
2021/04/22 02:13:10;;;;;;;11.80;6.85;;;;;;;7.07;74.15;95508.50;5073048;28;20055;-66
2021/04/22 02:15:36;;;;;;;11.25;6.90;;;;;;;6.77;77.48;95514.22;5056349;28;20119;-66
2021/04/22 02:18:02;;;;;;;16.95;7.72;;;;;;;6.61;76.50;95505.41;5049884;28;20037;-65
2021/04/22 02:20:27;;;;;;;14.00;8.13;;;;;;;6.51;78.77;95510.50;5054611;28;20112;-65
2021/04/22 02:22:54;;;;;;;12.50;7.85;;;;;;;6.33;77.77;95504.53;5053319;28;20116;-65
2021/04/22 02:25:22;;;;;;;13.13;8.35;;;;;;;6.44;78.79;95509.88;5059876;28;20045;-65
2021/04/22 02:27:49;;;;;;;13.95;7.72;;;;;;;6.57;78.36;95506.91;5054073;28;20124;-65
2021/04/22 02:30:18;;;;;;;13.85;8.07;;;;;;;6.31;78.58;95501.38;5049298;28;20065;-66
2021/04/22 02:32:44;;;;;;;13.25;7.50;;;;;;;6.36;79.29;95498.81;5032883;28;20530;-65
2021/04/22 02:35:12;;;;;;;12.82;7.80;;;;;;;6.43;78.58;95503.09;5044910;28;20127;-65
2021/04/22 02:37:37;;;;;;;15.27;7.90;;;;;;;6.42;79.70;95502.28;5064489;28;20071;-66
2021/04/22 02:40:12;;;;;;;12.85;7.45;;;;;;;6.49;78.68;95502.09;5058165;28;20036;-66
2021/04/22 02:42:39;;;;;;;;;;;;;;;6.44;77.94;95509.88;5056963;28;20041;-66
2021/04/22 02:45:08;;;;;;;14.95;7.90;;;;;;;6.31;79.71;95506.59;5059408;28;20458;-65
2021/04/22 02:47:34;;;;;;;12.80;7.00;;;;;;;6.25;79.51;95510.19;5045037;28;20051;-67
2021/04/22 02:49:59;;;;;;;12.82;7.53;;;;;;;6.15;80.71;95517.88;5070261;28;20108;-66
2021/04/22 02:52:25;;;;;;;12.40;7.00;;;;;;;6.15;80.59;95520.47;5050657;28;20131;-66
2021/04/22 02:54:50;;;;;;;12.50;7.20;;;;;;;6.18;79.65;95523.41;5053802;28;20491;-65
2021/04/22 02:57:16;;;;;;;11.18;7.03;;;;;;;6.13;80.37;95515.50;5057148;28;20124;-65
2021/04/22 02:59:42;;;;;;;15.60;7.60;;;;;;;6.13;80.26;95509.50;5052368;28;20045;-65
2021/04/22 03:02:07;;;;;;;12.25;7.38;;;;;;;6.10;80.07;95515.19;5049317;28;20041;-67
2021/04/22 03:04:33;;;;;;;16.30;7.88;;;;;;;6.04;81.40;95517.72;5054704;28;20090;-65
2021/04/22 03:06:58;;;;;;;11.55;7.32;;;;;;;6.11;80.94;95520.19;5039536;28;20056;-65
2021/04/22 03:09:24;;;;;;;13.68;8.45;;;;;;;5.95;81.84;95523.56;5053911;28;20055;-66
2021/04/22 03:11:52;;;;;;;14.52;8.32;;;;;;;5.98;81.73;95518.69;5059209;28;20060;-67
2021/04/22 03:14:17;;;;;;;13.65;8.32;;;;;;;5.93;82.66;95521.19;5036965;28;20111;-66
2021/04/22 03:16:43;;;;;;;15.30;8.23;;;;;;;6.04;81.55;95528.19;5066692;28;20542;-65
2021/04/22 03:19:08;;;;;;;14.32;7.95;;;;;;;6.06;80.66;95526.13;5052109;28;20037;-66
2021/04/22 03:21:34;;;;;;;19.33;9.32;;;;;;;5.92;81.82;95519.63;5059593;28;20045;-66
2021/04/22 03:23:59;;;;;;;16.58;9.15;;;;;;;6.00;81.52;95527.06;5034273;28;20056;-65
2021/04/22 03:26:25;;;;;;;14.07;9.10;;;;;;;5.95;82.73;95523.56;5050738;28;20049;-65
2021/04/22 03:28:50;;;;;;;15.25;9.32;;;;;;;5.96;82.07;95525.16;5058451;28;20067;-65
2021/04/22 03:31:16;;;;;;;16.67;9.50;;;;;;;6.09;81.97;95524.84;5052751;28;20045;-65
2021/04/22 03:33:41;;;;;;;17.00;9.70;;;;;;;6.05;82.68;95529.78;5050393;28;20561;-65
2021/04/22 03:36:07;;;;;;;16.15;9.75;;;;;;;5.99;82.36;95528.13;5043979;28;20068;-65
2021/04/22 03:38:33;;;;;;;14.98;10.10;;;;;;;5.95;82.80;95529.59;5053375;28;20080;-66
2021/04/22 03:40:58;;;;;;;21.75;10.20;;;;;;;5.75;83.17;95537.09;5065118;28;20547;-66
2021/04/22 03:43:24;;;;;;;19.27;10.85;;;;;;;5.55;84.91;95539.16;5071878;28;20071;-66
2021/04/22 03:45:49;;;;;;;18.48;10.85;;;;;;;5.45;85.67;95556.50;5057294;28;20510;-65
2021/04/22 03:48:15;;;;;;;20.45;12.57;;;;;;;5.63;84.47;95574.56;5051551;28;20052;-65
2021/04/22 03:50:40;;;;;;;19.50;11.38;;;;;;;5.48;85.48;95567.22;5047145;28;20063;-66
2021/04/22 03:53:06;;;;;;;20.30;12.15;;;;;;;5.46;85.67;95571.91;5049449;28;20037;-67
2021/04/22 03:55:32;;;;;;;20.27;12.25;;;;;;;5.51;85.59;95571.19;5049755;28;20479;-65
2021/04/22 03:57:57;;;;;;;20.98;13.18;;;;;;;5.41;85.52;95578.84;5054643;28;20059;-66
2021/04/22 04:00:24;;;;;;;24.53;13.27;;;;;;;5.49;85.63;95568.03;5052789;28;20049;-66
2021/04/22 04:02:50;;;;;;;27.30;13.52;;;;;;;5.43;86.29;95575.00;5040793;28;20045;-65
2021/04/22 04:05:17;;;;;;;24.35;13.13;;;;;;;5.52;85.44;95578.78;5047971;28;20052;-66
2021/04/22 04:07:42;;;;;;;24.25;13.45;;;;;;;5.45;85.82;95577.38;5065694;28;20059;-66
2021/04/22 04:10:09;;;;;;;24.65;13.40;;;;;;;5.30;86.20;95581.28;5053231;28;20120;-66
2021/04/22 04:12:35;;;;;;;25.48;14.32;;;;;;;5.25;86.59;95573.34;5054835;28;20441;-65
2021/04/22 04:15:03;;;;;;;25.67;14.45;;;;;;;5.25;86.79;95573.34;5056485;28;20044;-66
2021/04/22 04:17:28;;;;;;;24.67;13.52;;;;;;;5.22;87.20;95579.06;5047553;28;20037;-66
2021/04/22 04:19:54;;;;;;;25.25;14.25;;;;;;;5.22;87.16;95567.84;5049064;28;20179;-66
2021/04/22 04:22:19;;;;;;;26.05;13.27;;;;;;;5.13;87.54;95570.00;5054673;28;20062;-66
2021/04/22 04:24:45;;;;;;;25.98;15.35;;;;;;;5.04;87.72;95577.41;5056082;28;20048;-66
2021/04/22 04:27:11;;;;;;;25.73;14.70;;;;;;;5.04;87.57;95569.56;5050082;28;20037;-65
2021/04/22 04:29:36;;;;;;;22.83;13.07;;;;;;;5.18;86.76;95564.88;5048760;28;20084;-66
2021/04/22 04:32:02;;;;;;;23.83;13.07;;;;;;;5.28;86.33;95567.66;5051546;28;20046;-66
2021/04/22 04:34:28;;;;;;;24.80;14.43;;;;;;;5.17;86.12;95565.91;5049084;28;20063;-66
2021/04/22 04:36:53;;;;;;;25.15;14.38;;;;;;;5.11;87.00;95572.06;5065888;28;20052;-67
2021/04/22 04:39:19;;;;;;;27.42;14.23;;;;;;;5.00;87.65;95582.31;5050429;28;20576;-66
2021/04/22 04:41:45;;;;;;;24.50;14.18;;;;;;;4.99;87.27;95575.50;5062280;28;20044;-66
2021/04/22 04:44:11;;;;;;;26.50;14.95;;;;;;;4.98;87.97;95579.13;5043029;28;20072;-66
2021/04/22 04:46:38;;;;;;;31.88;15.00;;;;;;;4.90;88.32;95597.75;5030446;28;20395;-66
2021/04/22 04:49:05;;;;;;;28.17;15.20;;;;;;;4.77;89.00;95593.59;5043697;28;20041;-67
2021/04/22 04:51:31;;;;;;;24.67;13.57;;;;;;;4.68;88.98;95590.56;5030825;28;20228;-66
2021/04/22 04:53:57;;;;;;;29.27;13.75;;;;;;;4.59;88.76;95602.34;5039087;28;20545;-65
2021/04/22 04:56:22;;;;;;;27.10;14.52;;;;;;;4.54;89.26;95607.47;5030800;28;20041;-66
2021/04/22 04:58:49;;;;;;;24.63;14.30;;;;;;;4.67;88.74;95602.00;5056083;28;20102;-67
2021/04/22 05:01:15;;;;;;;24.35;13.20;;;;;;;4.84;88.35;95609.09;5050591;28;20044;-65
2021/04/22 05:03:41;;;;;;;29.05;14.52;;;;;;;5.13;87.50;95602.13;5054013;28;20063;-66
2021/04/22 05:06:06;;;;;;;29.73;15.02;;;;;;;5.18;87.54;95610.00;5038720;28;20041;-66
2021/04/22 05:08:33;;;;;;;27.40;15.35;;;;;;;5.33;87.53;95612.13;5044080;28;20148;-67
2021/04/22 05:10:59;;;;;;;30.08;15.88;;;;;;;5.44;87.21;95610.50;5057806;28;20041;-65
2021/04/22 05:13:25;;;;;;;30.55;15.20;;;;;;;5.58;86.68;95613.59;5055695;28;20044;-68
2021/04/22 05:15:51;;;;;;;27.27;15.00;;;;;;;5.68;86.29;95613.78;5051349;28;20486;-67
2021/04/22 05:18:17;;;;;;;25.42;13.95;;;;;;;5.71;85.60;95613.31;5043567;28;20045;-66
2021/04/22 05:20:42;;;;;;;29.80;14.82;;;;;;;5.70;85.84;95616.16;5052518;28;20050;-66
2021/04/22 05:23:08;;;;;;;30.30;15.80;;;;;;;5.67;86.43;95617.41;5069184;28;20055;-65
2021/04/22 05:25:33;;;;;;;28.30;16.05;;;;;;;5.71;86.55;95623.75;5048240;28;20281;-66
2021/04/22 05:27:59;;;;;;;28.73;16.33;;;;;;;5.79;86.31;95632.22;5052590;28;20486;-66
2021/04/22 05:30:25;;;;;;;27.95;15.50;;;;;;;5.99;85.17;95640.44;5050279;28;20045;-66
2021/04/22 05:32:50;;;;;;;24.80;14.73;;;;;;;6.24;83.85;95663.56;5062599;28;20147;-67
2021/04/22 05:35:16;;;;;;;23.80;13.77;;;;;;;6.40;82.59;95669.81;5048211;28;20494;-68
2021/04/22 05:37:43;;;;;;;23.17;14.15;;;;;;;6.49;81.97;95664.19;5055322;28;20095;-66
2021/04/22 05:40:09;;;;;;;25.15;14.85;;;;;;;6.55;81.71;95664.03;5055880;28;20058;-66
2021/04/22 05:42:35;;;;;;;26.67;13.90;;;;;;;6.68;81.54;95667.34;5036412;28;20033;-67
2021/04/22 05:45:01;;;;;;;22.92;13.98;;;;;;;6.75;80.72;95668.78;5055091;28;20047;-67
2021/04/22 05:47:26;;;;;;;25.25;14.20;;;;;;;6.80;80.75;95664.66;5045946;28;20037;-66
2021/04/22 05:49:52;;;;;;;28.00;15.35;;;;;;;6.83;80.84;95661.53;5058523;28;20032;-66
2021/04/22 05:52:18;;;;;;;26.83;15.40;;;;;;;6.95;79.57;95677.91;5055046;28;20409;-66
2021/04/22 05:54:43;;;;;;;22.95;13.90;;;;;;;7.02;80.79;95670.66;5050191;28;20056;-66
2021/04/22 05:57:09;;;;;;;24.20;13.18;;;;;;;7.05;79.75;95672.84;5068247;28;20067;-68
2021/04/22 05:59:34;;;;;;;23.40;14.52;;;;;;;6.96;80.02;95671.66;5048003;28;20052;-66
2021/04/22 06:02:00;;;;;;;24.48;14.18;;;;;;;6.98;80.30;95666.16;5043084;28;20032;-66
2021/04/22 06:04:26;;;;;;;25.85;14.82;;;;;;;6.94;80.23;95673.72;5037547;28;20053;-66
2021/04/22 06:06:51;;;;;;;28.85;14.38;;;;;;;6.96;79.75;95676.88;5053707;28;20044;-68
2021/04/22 06:09:17;;;;;;;26.83;14.57;;;;;;;7.05;81.65;95667.59;5053634;28;20067;-67
2021/04/22 06:11:42;;;;;;;23.88;13.73;;;;;;;7.08;79.36;95682.81;5048963;28;20045;-66
2021/04/22 06:14:08;;;;;;;24.80;14.07;;;;;;;7.18;78.90;95681.34;5053229;28;20057;-66
2021/04/22 06:16:34;;;;;;;24.15;14.20;;;;;;;7.24;78.76;95678.56;5052814;28;20063;-65
2021/04/22 06:18:59;;;;;;;25.65;13.95;;;;;;;7.29;78.41;95677.81;5054436;28;20030;-65
2021/04/22 06:21:25;;;;;;;24.42;13.88;;;;;;;7.37;78.45;95674.78;5058627;28;20043;-65
2021/04/22 06:23:52;;;;;;;24.55;13.07;;;;;;;7.43;78.25;95673.78;5048813;28;20518;-65
2021/04/22 06:26:18;;;;;;;22.17;13.38;;;;;;;7.58;77.08;95675.00;5056489;28;20135;-65
2021/04/22 06:28:44;;;;;;;24.75;13.35;;;;;;;7.63;77.44;95675.06;5055588;28;20040;-64
2021/04/22 06:31:09;;;;;;;24.42;13.55;;;;;;;7.72;76.95;95670.94;5061430;28;20078;-67
2021/04/22 06:33:35;;;;;;;26.20;13.27;;;;;;;7.77;77.13;95673.63;5054207;28;20103;-67
2021/04/22 06:36:01;;;;;;;23.55;13.93;;;;;;;7.92;76.02;95680.06;5052998;28;20565;-66
2021/04/22 06:38:27;;;;;;;27.17;13.43;;;;;;;7.88;76.88;95681.59;5041616;28;20144;-67
2021/04/22 06:40:53;;;;;;;25.27;13.55;;;;;;;7.83;76.80;95689.38;5060626;28;20053;-67
2021/04/22 06:43:18;;;;;;;25.75;13.85;;;;;;;7.88;75.56;95692.06;5054745;28;20502;-65
2021/04/22 06:45:45;;;;;;;23.77;13.40;;;;;;;7.83;76.26;95699.88;5055996;28;20062;-65
2021/04/22 06:48:13;;;;;;;25.25;13.88;;;;;;;7.96;75.77;95691.63;5059760;28;20043;-66
2021/04/22 06:50:39;;;;;;;24.10;14.25;;;;;;;8.13;73.61;95697.56;5059716;28;20052;-66
2021/04/22 06:53:06;;;;;;;25.40;14.48;;;;;;;8.30;73.65;95692.19;5053198;28;20041;-65
2021/04/22 06:55:31;;;;;;;25.65;14.00;;;;;;;8.46;72.26;95701.00;5053207;28;20045;-65
2021/04/22 06:58:03;;;;;;;26.70;15.07;;;;;;;8.53;72.82;95700.00;5064820;28;20043;-66
2021/04/22 07:00:35;;;;;;;24.25;14.63;;;;;;;8.75;71.43;95692.81;5051211;28;20068;-66
2021/04/22 07:03:01;;;;;;;24.50;14.05;;;;;;;9.08;69.69;95695.34;5054678;28;20057;-66
2021/04/22 07:05:27;;;;;;;27.90;13.98;;;;;;;9.22;69.35;95698.31;5066951;28;20059;-65
2021/04/22 07:07:52;;;;;;;23.00;14.32;;;;;;;9.10;69.75;95698.50;5054745;28;20047;-65
2021/04/22 07:10:19;;;;;;;24.63;14.35;;;;;;;9.05;69.10;95701.91;5058551;28;20041;-66
2021/04/22 07:12:45;;;;;;;23.25;13.98;;;;;;;9.14;68.96;95703.00;5056920;28;20492;-66
2021/04/22 07:15:12;;;;;;;24.98;14.02;;;;;;;9.06;68.98;95708.72;5069942;28;20078;-66
2021/04/22 07:17:38;;;;;;;22.73;14.13;;;;;;;8.93;70.00;95703.94;5051319;28;20048;-66
2021/04/22 07:20:14;;;;;;;24.88;14.00;;;;;;;8.89;70.61;95719.38;5051642;28;20041;-65
2021/04/22 07:22:39;;;;;;;26.30;15.27;;;;;;;8.86;70.13;95713.84;5051330;28;20037;-65
2021/04/22 07:25:07;;;;;;;25.45;15.43;;;;;;;8.91;69.83;95719.94;5035849;28;20056;-64
2021/04/22 07:27:33;;;;;;;25.50;15.30;;;;;;;9.07;70.10;95720.03;5055099;28;20410;-65
2021/04/22 07:29:59;;;;;;;30.58;15.88;;;;;;;8.99;70.16;95723.91;5050499;28;20068;-66
2021/04/22 07:32:25;;;;;;;23.98;14.82;;;;;;;9.21;69.04;95720.34;5047892;28;20111;-66
2021/04/22 07:34:51;;;;;;;26.23;15.38;;;;;;;9.37;70.52;95716.75;5051090;28;20087;-66
2021/04/22 07:37:17;;;;;;;27.20;14.90;;;;;;;9.60;68.78;95733.16;5045429;28;20053;-66
2021/04/22 07:39:44;;;;;;;28.30;15.70;;;;;;;9.49;68.50;95727.84;5055513;28;20048;-65
2021/04/22 07:42:10;;;;;;;25.15;15.05;;;;;;;9.57;68.00;95738.91;5050281;28;20049;-66
2021/04/22 07:44:35;;;;;;;25.48;15.75;;;;;;;9.70;67.49;95743.69;5056810;28;20055;-65
2021/04/22 07:47:02;;;;;;;33.45;16.27;;;;;;;9.87;67.46;95741.66;5058823;28;20034;-66
2021/04/22 07:49:28;;;;;;;28.27;15.93;;;;;;;9.92;68.00;95745.34;5039050;28;20060;-66
2021/04/22 07:51:54;;;;;;;25.83;15.15;;;;;;;10.10;66.73;95742.22;5036568;28;20437;-65
2021/04/22 07:54:19;;;;;;;23.23;14.77;;;;;;;10.06;66.38;95741.16;5039601;28;20072;-65
2021/04/22 07:56:45;;;;;;;28.02;15.07;;;;;;;10.04;66.28;95738.78;5056754;28;20410;-66
2021/04/22 07:59:11;;;;;;;25.83;15.23;;;;;;;10.14;65.25;95751.19;5052404;28;20040;-66
2021/04/22 08:01:36;;;;;;;24.25;15.77;;;;;;;10.04;66.02;95754.56;5056408;28;20437;-66
2021/04/22 08:04:04;;;;;;;29.02;14.10;;;;;;;10.21;66.40;95749.09;5051242;28;20063;-65
2021/04/22 08:06:30;;;;;;;25.58;13.90;;;;;;;10.14;65.13;95753.81;5058041;28;20037;-65
2021/04/22 08:08:55;;;;;;;23.70;14.98;;;;;;;10.27;63.76;95751.72;5053442;28;20199;-67
2021/04/22 08:11:21;;;;;;;23.40;13.63;;;;;;;10.02;63.86;95755.88;5050458;28;20124;-66
2021/04/22 08:13:46;;;;;;;29.33;15.23;;;;;;;9.89;64.57;95760.56;5052374;28;20049;-66
2021/04/22 08:16:12;;;;;;;26.92;15.20;;;;;;;9.83;64.47;95758.97;5051698;28;20053;-66
2021/04/22 08:18:39;;;;;;;25.30;14.27;;;;;;;10.02;62.92;95774.28;5041532;28;20071;-67
2021/04/22 08:21:04;;;;;;;29.23;15.02;;;;;;;10.31;63.58;95769.34;5055509;28;20045;-68
2021/04/22 08:23:32;;;;;;;24.02;15.15;;;;;;;10.38;62.94;95769.13;5054826;28;20043;-66
2021/04/22 08:26:07;;;;;;;24.52;14.85;;;;;;;10.18;63.50;95760.09;5058030;28;20405;-68
2021/04/22 08:28:35;;;;;;;24.20;13.35;;;;;;;10.69;63.52;95769.94;5047010;28;20053;-67
2021/04/22 08:31:10;;;;;;;21.60;13.85;;;;;;;11.18;61.15;95776.47;5048142;28;20045;-67
2021/04/22 08:33:37;;;;;;;22.55;13.68;;;;;;;11.18;59.96;95781.75;5045593;28;20060;-67
2021/04/22 08:36:05;;;;;;;19.77;12.70;;;;;;;11.40;59.84;95783.28;5046276;28;20069;-66
2021/04/22 08:38:31;;;;;;;19.50;13.05;;;;;;;10.91;61.03;95780.19;5060270;28;20045;-66
2021/04/22 08:40:56;;;;;;;20.25;13.80;;;;;;;11.01;60.93;95784.66;5055103;28;20045;-67
2021/04/22 08:43:23;;;;;;;27.75;15.30;;;;;;;10.74;59.13;95779.69;5058774;28;20671;-67
2021/04/22 08:45:50;;;;;;;26.48;15.32;;;;;;;11.05;59.73;95784.94;5059555;28;20501;-68
2021/04/22 08:48:16;;;;;;;22.88;14.07;;;;;;;11.31;58.58;95784.91;5051840;28;20548;-67
2021/04/22 08:50:43;;;;;;;21.85;14.45;;;;;;;11.30;59.59;95778.06;5047685;28;20049;-67
2021/04/22 08:53:18;;;;;;;24.98;14.40;;;;;;;11.11;60.60;95786.50;5051911;28;20494;-67
2021/04/22 08:55:45;;;;;;;21.02;13.52;;;;;;;11.71;57.71;95789.25;5033183;28;20477;-67
2021/04/22 08:58:11;;;;;;;19.95;12.95;;;;;;;11.99;57.27;95787.06;5055281;28;20301;-67
2021/04/22 09:00:41;;;;;;;23.73;14.38;;;;;;;11.96;57.22;95780.47;5049900;28;20509;-67
2021/04/22 09:03:07;;;;;;;26.23;14.35;;;;;;;11.91;56.84;95783.13;5035745;28;20049;-66
2021/04/22 09:05:33;;;;;;;25.25;16.50;;;;;;;11.46;57.17;95787.47;5050330;28;20045;-68
2021/04/22 09:07:59;;;;;;;25.30;15.55;;;;;;;11.88;57.38;95788.94;5042902;28;20079;-67
2021/04/22 09:10:25;;;;;;;27.63;16.20;;;;;;;11.49;57.97;95786.94;5061175;28;20045;-67
2021/04/22 09:12:59;;;;;;;22.73;14.68;;;;;;;11.90;56.77;95781.53;5049079;28;20045;-66
2021/04/22 09:15:26;;;;;;;24.63;15.13;;;;;;;12.10;56.64;95785.19;5030112;28;20100;-66
2021/04/22 09:18:00;;;;;;;22.00;14.40;;;;;;;12.08;56.24;95792.56;5059885;28;20033;-66
2021/04/22 09:20:39;;;;;;;26.63;15.30;;;;;;;12.22;55.15;95787.47;5056987;28;20128;-66
2021/04/22 09:23:28;;;;;;;26.25;15.27;;;;;;;12.46;55.99;95777.06;5050831;28;20430;-66
2021/04/22 09:26:01;;;;;;;28.17;16.75;;;;;;;12.51;53.96;95781.50;5051386;28;20114;-67
2021/04/22 09:28:36;;;;;;;25.55;15.63;;;;;;;12.74;54.63;95783.47;5055877;28;20048;-66
2021/04/22 09:31:02;;;;;;;26.15;15.60;;;;;;;13.30;52.45;95784.81;5062359;28;20045;-67
2021/04/22 09:33:31;;;;;;;24.30;15.82;;;;;;;12.72;53.89;95784.78;5055593;28;20045;-66
2021/04/22 09:36:08;;;;;;;26.63;16.08;;;;;;;12.83;54.36;95784.44;5054827;28;20093;-67
2021/04/22 09:38:35;;;;;;;29.38;16.08;;;;;;;12.92;52.81;95778.56;5050552;28;20049;-66
2021/04/22 09:41:08;;;;;;;25.05;15.98;;;;;;;12.96;53.51;95775.06;5051727;28;20041;-66
2021/04/22 09:43:33;;;;;;;25.45;16.33;;;;;;;12.21;54.27;95784.06;5053478;28;20146;-67
2021/04/22 09:45:59;;;;;;;27.20;15.73;;;;;;;12.10;54.77;95779.91;5053331;28;20041;-67
2021/04/22 09:48:28;;;;;;;27.33;17.52;;;;;;;12.03;57.31;95779.41;5051683;28;20041;-66
2021/04/22 09:50:55;;;;;;;24.58;16.33;;;;;;;12.03;57.19;95779.41;5051084;28;20044;-67
2021/04/22 09:53:24;;;;;;;28.85;15.85;;;;;;;11.95;57.10;95784.19;5049745;28;20056;-66
2021/04/22 09:55:51;;;;;;;25.25;17.25;;;;;;;11.85;58.53;95784.22;5047953;28;20041;-68
2021/04/22 09:58:25;;;;;;;31.05;17.80;;;;;;;11.67;58.57;95771.63;5052902;28;20472;-65
2021/04/22 10:00:50;;;;;;;28.80;17.58;;;;;;;11.78;59.51;95778.44;5052927;28;20045;-67
2021/04/22 10:03:16;;;;;;;27.42;18.05;;;;;;;12.61;57.17;95776.16;5051048;28;20063;-66
2021/04/22 10:05:42;;;;;;;31.35;19.48;;;;;;;12.70;55.79;95771.88;5048131;28;20131;-67
2021/04/22 10:08:13;;;;;;;27.67;18.05;;;;;;;13.48;54.83;95775.41;5049342;28;20044;-67
2021/04/22 10:10:42;;;;;;;27.95;19.10;;;;;;;12.53;55.73;95782.00;5053959;28;20044;-66
2021/04/22 10:13:10;;;;;;;32.10;18.42;;;;;;;12.96;54.28;95780.38;5056138;28;20048;-66
2021/04/22 10:15:36;;;;;;;25.52;18.50;;;;;;;12.82;54.11;95774.16;5053259;28;20056;-66
2021/04/22 10:18:08;;;;;;;30.25;19.00;;;;;;;12.65;55.96;95783.22;5051971;28;20041;-67
2021/04/22 10:20:36;;;;;;;26.80;17.67;;;;;;;12.48;55.50;95785.47;5054724;28;20037;-67
2021/04/22 10:23:03;;;;;;;33.15;19.30;;;;;;;12.85;54.03;95783.38;5063433;28;20390;-67
2021/04/22 10:25:31;;;;;;;30.15;18.63;;;;;;;13.18;51.84;95777.25;5048247;28;20091;-67
2021/04/22 10:28:17;;;;;;;28.55;18.70;;;;;;;13.28;53.78;95786.16;5057969;28;20051;-67
2021/04/22 10:30:48;;;;;;;32.63;19.40;;;;;;;13.41;51.80;95779.44;5058352;28;20045;-68
2021/04/22 10:33:15;;;;;;;29.42;19.88;;;;;;;12.85;53.84;95778.09;5054486;28;20049;-67
2021/04/22 10:35:43;;;;;;;32.28;21.17;;;;;;;12.43;55.93;95777.59;5054133;28;20048;-67
2021/04/22 10:38:09;;;;;;;34.20;21.55;;;;;;;12.42;55.11;95776.03;5045964;28;20495;-67
2021/04/22 10:40:48;;;;;;;30.42;20.38;;;;;;;13.34;52.56;95780.56;5053370;28;20049;-66
2021/04/22 10:43:21;;;;;;;30.05;20.25;;;;;;;13.64;52.81;95789.22;5057436;28;20079;-68
2021/04/22 10:45:48;;;;;;;32.33;20.35;;;;;;;13.69;52.49;95777.81;5053210;28;20502;-67
2021/04/22 10:48:15;;;;;;;33.92;20.75;;;;;;;15.06;50.63;95784.13;5070207;28;20116;-68
2021/04/22 10:50:43;;;;;;;26.85;19.33;;;;;;;16.27;45.19;95785.06;5051736;28;20128;-66
2021/04/22 10:53:12;;;;;;;29.23;20.60;;;;;;;15.29;46.65;95792.22;5049244;28;20406;-68
2021/04/22 10:55:41;;;;;;;28.35;19.45;;;;;;;15.51;45.64;95782.81;5063139;28;20028;-67
2021/04/22 10:58:24;;;;;;;26.83;20.20;;;;;;;14.44;48.90;95783.47;5063713;28;20049;-68
2021/04/22 11:00:52;;;;;;;29.27;20.80;;;;;;;15.81;45.48;95786.00;5051314;28;20077;-68
2021/04/22 11:03:39;;;;;;;30.25;21.10;;;;;;;15.30;46.56;95783.22;5062367;28;20099;-68
2021/04/22 11:06:06;;;;;;;30.45;21.17;;;;;;;14.37;48.44;95779.31;5045488;28;20067;-66
2021/04/22 11:08:46;;;;;;;28.52;21.13;;;;;;;14.41;48.74;95784.03;5041881;28;20438;-67
2021/04/22 11:11:22;;;;;;;28.85;21.05;;;;;;;15.37;45.16;95794.22;5054178;28;20053;-67
2021/04/22 11:13:50;;;;;;;29.85;21.42;;;;;;;14.46;47.38;95781.34;5052486;28;20045;-66
2021/04/22 11:16:16;;;;;;;29.02;20.40;;;;;;;15.27;45.77;95778.50;5056245;28;20051;-67
2021/04/22 11:18:44;;;;;;;30.90;21.25;;;;;;;16.65;41.50;95776.78;5070396;28;20056;-68
2021/04/22 11:21:27;;;;;;;32.47;20.52;;;;;;;16.03;44.34;95772.81;5056991;28;20037;-68
2021/04/22 11:23:56;;;;;;;33.90;22.42;;;;;;;15.15;45.75;95770.22;5056851;28;20624;-67